sensor_id;sensor_type;location;lat;lon;timestamp;pressure;altitude;pressure_sealevel;temperature;humidity
67109;BME280;54027;50.786;7.058;2022-12-24T00:01:40;100347.41;;;11.87;70.59
67109;BME280;54027;50.786;7.058;2022-12-24T00:04:05;100361.34;;;11.80;71.06
67109;BME280;54027;50.786;7.058;2022-12-24T00:06:31;100366.72;;;11.71;70.52
67109;BME280;54027;50.786;7.058;2022-12-24T00:08:56;100363.31;;;11.69;70.74
67109;BME280;54027;50.786;7.058;2022-12-24T00:11:22;100358.19;;;11.64;71.51
67109;BME280;54027;50.786;7.058;2022-12-24T00:13:47;100370.38;;;11.59;71.63
67109;BME280;54027;50.786;7.058;2022-12-24T00:16:13;100368.81;;;11.51;71.83
67109;BME280;54027;50.786;7.058;2022-12-24T00:18:39;100367.25;;;11.41;72.33
67109;BME280;54027;50.786;7.058;2022-12-24T00:21:04;100369.19;;;11.29;72.80
67109;BME280;54027;50.786;7.058;2022-12-24T00:23:31;100385.63;;;11.25;72.80
67109;BME280;54027;50.786;7.058;2022-12-24T00:25:56;100371.81;;;11.26;72.95
67109;BME280;54027;50.786;7.058;2022-12-24T00:28:22;100389.28;;;11.14;74.30
67109;BME280;54027;50.786;7.058;2022-12-24T00:30:47;100392.91;;;11.02;74.35
67109;BME280;54027;50.786;7.058;2022-12-24T00:33:13;100386.81;;;11.06;74.03
67109;BME280;54027;50.786;7.058;2022-12-24T00:35:39;100396.28;;;11.07;74.90
67109;BME280;54027;50.786;7.058;2022-12-24T00:38:05;100395.34;;;11.11;74.15
67109;BME280;54027;50.786;7.058;2022-12-24T00:40:31;100385.81;;;11.13;74.75
67109;BME280;54027;50.786;7.058;2022-12-24T00:42:57;100391.84;;;11.15;74.51
67109;BME280;54027;50.786;7.058;2022-12-24T00:45:23;100385.75;;;11.18;74.58
67109;BME280;54027;50.786;7.058;2022-12-24T00:47:48;100389.22;;;11.18;74.88
67109;BME280;54027;50.786;7.058;2022-12-24T00:50:14;100389.22;;;11.18;74.49
67109;BME280;54027;50.786;7.058;2022-12-24T00:52:40;100390.94;;;11.18;75.25
67109;BME280;54027;50.786;7.058;2022-12-24T00:55:06;100394.44;;;11.15;75.44
67109;BME280;54027;50.786;7.058;2022-12-24T00:57:31;100395.31;;;11.13;75.42
67109;BME280;54027;50.786;7.058;2022-12-24T00:59:57;100403.13;;;11.11;75.59
67109;BME280;54027;50.786;7.058;2022-12-24T01:02:22;100394.47;;;11.12;75.86
67109;BME280;54027;50.786;7.058;2022-12-24T01:04:48;100407.41;;;11.12;75.79
67109;BME280;54027;50.786;7.058;2022-12-24T01:07:32;100408.34;;;11.08;76.59
67109;BME280;54027;50.786;7.058;2022-12-24T01:09:57;100419.53;;;11.09;76.38
67109;BME280;54027;50.786;7.058;2022-12-24T01:12:23;100416.09;;;11.10;76.27
67109;BME280;54027;50.786;7.058;2022-12-24T01:14:48;100418.63;;;11.11;76.06
67109;BME280;54027;50.786;7.058;2022-12-24T01:17:14;100418.63;;;11.11;76.59
67109;BME280;54027;50.786;7.058;2022-12-24T01:19:39;100432.44;;;11.12;76.28
67109;BME280;54027;50.786;7.058;2022-12-24T01:22:04;100435.88;;;11.12;77.01
67109;BME280;54027;50.786;7.058;2022-12-24T01:24:30;100437.50;;;11.16;76.84
67109;BME280;54027;50.786;7.058;2022-12-24T01:26:55;100443.50;;;11.20;76.84
67109;BME280;54027;50.786;7.058;2022-12-24T01:29:21;100435.63;;;11.26;76.36
67109;BME280;54027;50.786;7.058;2022-12-24T01:31:46;100439.91;;;11.30;76.80
67109;BME280;54027;50.786;7.058;2022-12-24T01:34:12;100439.00;;;11.31;76.51
67109;BME280;54027;50.786;7.058;2022-12-24T01:36:37;100440.75;;;11.30;76.45
67109;BME280;54027;50.786;7.058;2022-12-24T01:39:03;100439.84;;;11.31;76.36
67109;BME280;54027;50.786;7.058;2022-12-24T01:41:30;100448.47;;;11.33;76.59
67109;BME280;54027;50.786;7.058;2022-12-24T01:44:28;100442.28;;;11.41;76.27
67109;BME280;54027;50.786;7.058;2022-12-24T01:47:15;100449.25;;;11.37;76.46
67109;BME280;54027;50.786;7.058;2022-12-24T01:49:46;100454.34;;;11.45;76.31
67109;BME280;54027;50.786;7.058;2022-12-24T01:52:30;100451.75;;;11.43;76.52
67109;BME280;54027;50.786;7.058;2022-12-24T01:55:10;100454.38;;;11.40;76.57
67109;BME280;54027;50.786;7.058;2022-12-24T01:57:40;100451.88;;;11.34;76.36
67109;BME280;54027;50.786;7.058;2022-12-24T02:00:09;100464.09;;;11.27;77.33
67109;BME280;54027;50.786;7.058;2022-12-24T02:02:38;100472.00;;;11.18;77.24
67109;BME280;54027;50.786;7.058;2022-12-24T02:05:07;100463.28;;;11.22;76.95
67109;BME280;54027;50.786;7.058;2022-12-24T02:07:35;100470.13;;;11.25;76.85
67109;BME280;54027;50.786;7.058;2022-12-24T02:10:02;100469.34;;;11.21;77.00
67109;BME280;54027;50.786;7.058;2022-12-24T02:12:30;100482.25;;;11.23;77.36
67109;BME280;54027;50.786;7.058;2022-12-24T02:14:56;100485.75;;;11.19;77.32
67109;BME280;54027;50.786;7.058;2022-12-24T02:17:31;100492.75;;;11.14;77.42
67109;BME280;54027;50.786;7.058;2022-12-24T02:22:58;100498.94;;;11.04;78.12
67109;BME280;54027;50.786;7.058;2022-12-24T02:28:00;100491.28;;;10.96;78.02
67109;BME280;54027;50.786;7.058;2022-12-24T02:30:42;100490.38;;;11.00;78.04
67109;BME280;54027;50.786;7.058;2022-12-24T02:33:24;100497.25;;;11.00;77.69
67109;BME280;54027;50.786;7.058;2022-12-24T02:36:05;100508.59;;;10.90;78.66
67109;BME280;54027;50.786;7.058;2022-12-24T02:41:41;100519.16;;;10.76;79.25
67109;BME280;54027;50.786;7.058;2022-12-24T02:44:29;100527.66;;;10.86;78.44
67109;BME280;54027;50.786;7.058;2022-12-24T02:46:56;100534.41;;;10.93;78.53
67109;BME280;54027;50.786;7.058;2022-12-24T02:49:23;100532.66;;;10.96;77.98
67109;BME280;54027;50.786;7.058;2022-12-24T02:51:48;100523.94;;;11.02;78.02
67109;BME280;54027;50.786;7.058;2022-12-24T02:54:14;100531.75;;;10.99;78.69
67109;BME280;54027;50.786;7.058;2022-12-24T03:12:42;100543.03;;;10.93;78.65
67109;BME280;54027;50.786;7.058;2022-12-24T03:15:12;100538.78;;;10.89;79.37
67109;BME280;54027;50.786;7.058;2022-12-24T03:17:39;100540.56;;;10.84;79.73
67109;BME280;54027;50.786;7.058;2022-12-24T03:20:08;100546.69;;;10.80;80.54
67109;BME280;54027;50.786;7.058;2022-12-24T03:22:36;100544.13;;;10.77;81.20
67109;BME280;54027;50.786;7.058;2022-12-24T03:25:02;100541.63;;;10.69;82.92
67109;BME280;54027;50.786;7.058;2022-12-24T03:27:29;100552.91;;;10.62;84.40
67109;BME280;54027;50.786;7.058;2022-12-24T03:29:55;100558.22;;;10.52;85.36
67109;BME280;54027;50.786;7.058;2022-12-24T03:32:27;100560.91;;;10.44;87.07
67109;BME280;54027;50.786;7.058;2022-12-24T03:34:53;100565.19;;;10.42;87.99
67109;BME280;54027;50.786;7.058;2022-12-24T03:37:19;100569.56;;;10.37;88.09
67109;BME280;54027;50.786;7.058;2022-12-24T03:39:45;100571.31;;;10.35;88.91
67109;BME280;54027;50.786;7.058;2022-12-24T03:42:10;100572.25;;;10.28;89.90
67109;BME280;54027;50.786;7.058;2022-12-24T03:44:35;100573.13;;;10.24;90.78
67109;BME280;54027;50.786;7.058;2022-12-24T03:47:01;100572.34;;;10.20;90.64
67109;BME280;54027;50.786;7.058;2022-12-24T03:49:26;100577.53;;;10.17;91.30
67109;BME280;54027;50.786;7.058;2022-12-24T03:51:52;100579.25;;;10.15;92.06
67109;BME280;54027;50.786;7.058;2022-12-24T03:54:17;100587.91;;;10.14;93.42
67109;BME280;54027;50.786;7.058;2022-12-24T03:56:42;100580.97;;;10.16;93.08
67109;BME280;54027;50.786;7.058;2022-12-24T03:59:08;100578.34;;;10.21;93.58
67109;BME280;54027;50.786;7.058;2022-12-24T04:01:33;100581.75;;;10.26;92.94
67109;BME280;54027;50.786;7.058;2022-12-24T04:03:59;100585.19;;;10.25;93.26
67109;BME280;54027;50.786;7.058;2022-12-24T04:06:24;100599.00;;;10.21;93.55
67109;BME280;54027;50.786;7.058;2022-12-24T04:08:49;100594.75;;;10.15;93.69
67109;BME280;54027;50.786;7.058;2022-12-24T04:11:16;100587.06;;;10.09;94.70
67109;BME280;54027;50.786;7.058;2022-12-24T04:13:42;100591.44;;;10.01;95.04
67109;BME280;54027;50.786;7.058;2022-12-24T04:16:10;100598.38;;;9.96;96.39
67109;BME280;54027;50.786;7.058;2022-12-24T04:18:36;100599.31;;;9.91;96.25
67109;BME280;54027;50.786;7.058;2022-12-24T04:21:02;100593.31;;;9.87;94.92
67109;BME280;54027;50.786;7.058;2022-12-24T04:23:32;100595.06;;;9.82;95.46
67109;BME280;54027;50.786;7.058;2022-12-24T04:25:59;100595.13;;;9.76;95.65
67109;BME280;54027;50.786;7.058;2022-12-24T04:28:24;100604.59;;;9.73;96.53
67109;BME280;54027;50.786;7.058;2022-12-24T04:30:50;100604.63;;;9.68;96.94
67109;BME280;54027;50.786;7.058;2022-12-24T04:33:15;100599.50;;;9.63;96.86
67109;BME280;54027;50.786;7.058;2022-12-24T04:35:41;100602.13;;;9.57;96.89
67109;BME280;54027;50.786;7.058;2022-12-24T04:38:09;100613.28;;;9.53;97.31
67109;BME280;54027;50.786;7.058;2022-12-24T04:40:35;100626.22;;;9.50;97.08
67109;BME280;54027;50.786;7.058;2022-12-24T04:43:00;100627.97;;;9.48;97.03
67109;BME280;54027;50.786;7.058;2022-12-24T04:45:26;100625.38;;;9.44;97.29
67109;BME280;54027;50.786;7.058;2022-12-24T04:47:51;100629.72;;;9.42;96.73
67109;BME280;54027;50.786;7.058;2022-12-24T04:50:17;100629.72;;;9.39;96.78
67109;BME280;54027;50.786;7.058;2022-12-24T04:52:42;100623.72;;;9.37;98.22
67109;BME280;54027;50.786;7.058;2022-12-24T04:55:08;100624.63;;;9.34;97.45
67109;BME280;54027;50.786;7.058;2022-12-24T04:57:34;100623.75;;;9.32;97.61
67109;BME280;54027;50.786;7.058;2022-12-24T05:00:00;100628.94;;;9.28;98.22
67109;BME280;54027;50.786;7.058;2022-12-24T05:02:26;100615.19;;;9.24;97.58
67109;BME280;54027;50.786;7.058;2022-12-24T05:04:51;100619.53;;;9.19;98.38
67109;BME280;54027;50.786;7.058;2022-12-24T05:07:16;100613.53;;;9.12;98.70
67109;BME280;54027;50.786;7.058;2022-12-24T05:09:42;100610.13;;;9.06;98.17
67109;BME280;54027;50.786;7.058;2022-12-24T05:12:07;100614.44;;;9.02;98.21
67109;BME280;54027;50.786;7.058;2022-12-24T05:14:33;100607.59;;;8.98;98.68
67109;BME280;54027;50.786;7.058;2022-12-24T05:16:58;100613.63;;;8.96;99.31
67109;BME280;54027;50.786;7.058;2022-12-24T05:19:23;100625.66;;;8.94;98.99
67109;BME280;54027;50.786;7.058;2022-12-24T05:21:49;100641.97;;;8.94;99.62
67109;BME280;54027;50.786;7.058;2022-12-24T05:24:34;100642.84;;;8.95;100.00
67109;BME280;54027;50.786;7.058;2022-12-24T05:27:19;100637.69;;;8.95;99.86
67109;BME280;54027;50.786;7.058;2022-12-24T05:29:44;100633.41;;;8.95;100.00
67109;BME280;54027;50.786;7.058;2022-12-24T05:32:09;100642.84;;;8.98;100.00
67109;BME280;54027;50.786;7.058;2022-12-24T05:34:35;100637.66;;;9.01;99.75
67109;BME280;54027;50.786;7.058;2022-12-24T05:37:00;100647.97;;;9.04;100.00
67109;BME280;54027;50.786;7.058;2022-12-24T05:39:26;100642.78;;;9.05;100.00
67109;BME280;54027;50.786;7.058;2022-12-24T05:41:51;100647.09;;;9.06;100.00
67109;BME280;54027;50.786;7.058;2022-12-24T05:44:16;100650.50;;;9.08;100.00
67109;BME280;54027;50.786;7.058;2022-12-24T05:46:42;100650.50;;;9.08;99.94
67109;BME280;54027;50.786;7.058;2022-12-24T05:49:08;100651.38;;;9.06;100.00
67109;BME280;54027;50.786;7.058;2022-12-24T05:51:33;100648.00;;;8.98;100.00
67109;BME280;54027;50.786;7.058;2022-12-24T05:53:59;100653.19;;;8.89;99.82
67109;BME280;54027;50.786;7.058;2022-12-24T05:56:25;100655.78;;;8.83;99.63
67109;BME280;54027;50.786;7.058;2022-12-24T05:58:52;100666.09;;;8.80;100.00
67109;BME280;54027;50.786;7.058;2022-12-24T06:01:18;100664.38;;;8.80;100.00
67109;BME280;54027;50.786;7.058;2022-12-24T06:03:44;100672.09;;;8.82;100.00
67109;BME280;54027;50.786;7.058;2022-12-24T06:06:17;100667.81;;;8.84;100.00
67109;BME280;54027;50.786;7.058;2022-12-24T06:08:43;100660.09;;;8.81;100.00
67109;BME280;54027;50.786;7.058;2022-12-24T06:11:11;100661.81;;;8.77;100.00
67109;BME280;54027;50.786;7.058;2022-12-24T06:13:38;100663.53;;;8.72;100.00
67109;BME280;54027;50.786;7.058;2022-12-24T06:16:05;100670.41;;;8.67;100.00
67109;BME280;54027;50.786;7.058;2022-12-24T06:18:32;100666.97;;;8.64;100.00
67109;BME280;54027;50.786;7.058;2022-12-24T06:20:58;100670.41;;;8.58;100.00
67109;BME280;54027;50.786;7.058;2022-12-24T06:23:25;100683.31;;;8.53;100.00
67109;BME280;54027;50.786;7.058;2022-12-24T06:25:55;100679.91;;;8.45;100.00
67109;BME280;54027;50.786;7.058;2022-12-24T06:28:20;100681.59;;;8.49;100.00
67109;BME280;54027;50.786;7.058;2022-12-24T06:30:47;100682.50;;;8.42;100.00
67109;BME280;54027;50.786;7.058;2022-12-24T06:33:13;100688.47;;;8.43;100.00
67109;BME280;54027;50.786;7.058;2022-12-24T06:35:39;100679.03;;;8.52;100.00
67109;BME280;54027;50.786;7.058;2022-12-24T06:38:04;100691.03;;;8.61;100.00
67109;BME280;54027;50.786;7.058;2022-12-24T06:40:30;100694.47;;;8.69;100.00
67109;BME280;54027;50.786;7.058;2022-12-24T06:42:55;100690.16;;;8.74;100.00
67109;BME280;54027;50.786;7.058;2022-12-24T06:45:20;100700.44;;;8.79;100.00
67109;BME280;54027;50.786;7.058;2022-12-24T06:47:46;100706.44;;;8.82;100.00
67109;BME280;54027;50.786;7.058;2022-12-24T06:50:11;100707.28;;;8.87;100.00
67109;BME280;54027;50.786;7.058;2022-12-24T06:52:37;100708.16;;;8.89;100.00
67109;BME280;54027;50.786;7.058;2022-12-24T06:55:03;100723.59;;;8.91;100.00
67109;BME280;54027;50.786;7.058;2022-12-24T06:57:28;100723.63;;;8.92;100.00
67109;BME280;54027;50.786;7.058;2022-12-24T06:59:56;100732.19;;;8.94;100.00
67109;BME280;54027;50.786;7.058;2022-12-24T07:02:22;100737.34;;;8.94;100.00
67109;BME280;54027;50.786;7.058;2022-12-24T08:49:56;100826.22;;;10.38;92.77
67109;BME280;54027;50.786;7.058;2022-12-24T08:52:21;100834.75;;;10.49;91.79
67109;BME280;54027;50.786;7.058;2022-12-24T08:54:47;100834.69;;;10.59;91.29
67109;BME280;54027;50.786;7.058;2022-12-24T08:57:12;100829.44;;;10.68;90.88
67109;BME280;54027;50.786;7.058;2022-12-24T08:59:39;100834.53;;;10.79;90.67
67109;BME280;54027;50.786;7.058;2022-12-24T09:02:04;100839.66;;;10.85;89.62
67109;BME280;54027;50.786;7.058;2022-12-24T09:04:30;100845.66;;;10.87;89.22
67109;BME280;54027;50.786;7.058;2022-12-24T09:06:55;100837.06;;;10.84;88.07
67109;BME280;54027;50.786;7.058;2022-12-24T09:09:21;100842.25;;;10.82;87.92
67109;BME280;54027;50.786;7.058;2022-12-24T09:11:46;100840.53;;;10.83;87.55
67109;BME280;54027;50.786;7.058;2022-12-24T09:14:12;100851.72;;;10.85;87.75
67109;BME280;54027;50.786;7.058;2022-12-24T09:16:38;100854.28;;;10.86;88.26
67109;BME280;54027;50.786;7.058;2022-12-24T09:19:03;100857.72;;;10.88;87.73
67109;BME280;54027;50.786;7.058;2022-12-24T09:21:28;100861.13;;;10.93;87.32
67109;BME280;54027;50.786;7.058;2022-12-24T09:23:54;100864.50;;;10.98;86.74
67109;BME280;54027;50.786;7.058;2022-12-24T09:26:24;100871.38;;;11.02;87.14
67109;BME280;54027;50.786;7.058;2022-12-24T09:28:51;100872.25;;;11.03;86.12
67109;BME280;54027;50.786;7.058;2022-12-24T09:31:17;100880.00;;;11.06;85.37
67109;BME280;54027;50.786;7.058;2022-12-24T09:33:45;100880.81;;;11.08;85.95
67109;BME280;54027;50.786;7.058;2022-12-24T09:36:11;100886.88;;;11.10;86.46
67109;BME280;54027;50.786;7.058;2022-12-24T09:38:37;100893.72;;;11.12;85.97
67109;BME280;54027;50.786;7.058;2022-12-24T09:43:46;100900.56;;;11.19;86.15
67109;BME280;54027;50.786;7.058;2022-12-24T09:46:27;100907.41;;;11.26;85.34
67109;BME280;54027;50.786;7.058;2022-12-24T09:48:57;100901.31;;;11.33;85.54
67109;BME280;54027;50.786;7.058;2022-12-24T09:51:40;100897.78;;;11.42;84.42
67109;BME280;54027;50.786;7.058;2022-12-24T09:54:10;100896.81;;;11.54;82.54
67109;BME280;54027;50.786;7.058;2022-12-24T09:56:40;100883.78;;;11.63;82.30
67109;BME280;54027;50.786;7.058;2022-12-24T09:59:14;100898.34;;;11.71;81.78
67109;BME280;54027;50.786;7.058;2022-12-24T10:01:40;100909.50;;;11.76;82.00
67109;BME280;54027;50.786;7.058;2022-12-24T10:04:13;100906.84;;;11.84;82.53
67109;BME280;54027;50.786;7.058;2022-12-24T10:06:52;100914.56;;;11.88;80.27
67109;BME280;54027;50.786;7.058;2022-12-24T10:09:34;100925.78;;;11.89;81.17
67109;BME280;54027;50.786;7.058;2022-12-24T10:12:21;100924.97;;;11.85;81.14
67109;BME280;54027;50.786;7.058;2022-12-24T10:22:45;100922.50;;;11.73;81.01
67109;BME280;54027;50.786;7.058;2022-12-24T10:25:57;100921.53;;;11.82;79.94
67109;BME280;54027;50.786;7.058;2022-12-24T10:28:32;100919.75;;;11.88;79.34
67109;BME280;54027;50.786;7.058;2022-12-24T10:31:01;100913.66;;;11.91;79.42
67109;BME280;54027;50.786;7.058;2022-12-24T10:33:40;100920.53;;;11.95;79.02
67109;BME280;54027;50.786;7.058;2022-12-24T10:36:11;100927.44;;;11.93;80.13
67109;BME280;54027;50.786;7.058;2022-12-24T10:38:39;100921.41;;;11.94;79.71
67109;BME280;54027;50.786;7.058;2022-12-24T10:41:06;100931.75;;;11.96;80.46
67109;BME280;54027;50.786;7.058;2022-12-24T10:43:32;100931.72;;;11.97;80.07
67109;BME280;54027;50.786;7.058;2022-12-24T10:46:06;100935.16;;;11.99;79.89
67109;BME280;54027;50.786;7.058;2022-12-24T10:48:38;100937.75;;;11.99;79.35
67109;BME280;54027;50.786;7.058;2022-12-24T10:51:09;100937.75;;;12.01;80.31
67109;BME280;54027;50.786;7.058;2022-12-24T10:53:51;100942.91;;;12.01;79.95
67109;BME280;54027;50.786;7.058;2022-12-24T10:56:19;100933.38;;;12.03;79.60
67109;BME280;54027;50.786;7.058;2022-12-24T10:58:50;100929.06;;;12.03;79.93
67109;BME280;54027;50.786;7.058;2022-12-24T11:01:16;100939.41;;;12.08;80.14
67109;BME280;54027;50.786;7.058;2022-12-24T11:03:42;100933.31;;;12.10;80.00
67109;BME280;54027;50.786;7.058;2022-12-24T11:06:15;100932.41;;;12.11;79.91
67109;BME280;54027;50.786;7.058;2022-12-24T11:08:45;100922.09;;;12.08;79.82
67109;BME280;54027;50.786;7.058;2022-12-24T11:16:34;100931.59;;;12.09;79.04
67109;BME280;54027;50.786;7.058;2022-12-24T11:19:03;100934.94;;;12.17;79.73
67109;BME280;54027;50.786;7.058;2022-12-24T11:21:35;100927.88;;;12.31;79.67
67109;BME280;54027;50.786;7.058;2022-12-24T11:24:23;100920.81;;;12.41;78.78
67109;BME280;54027;50.786;7.058;2022-12-24T11:26:50;100927.69;;;12.43;78.69
67109;BME280;54027;50.786;7.058;2022-12-24T11:29:20;100913.06;;;12.38;78.55
67109;BME280;54027;50.786;7.058;2022-12-24T11:31:46;100913.19;;;12.30;79.04
67109;BME280;54027;50.786;7.058;2022-12-24T11:36:54;100915.19;;;12.09;79.57
67109;BME280;54027;50.786;7.058;2022-12-24T11:39:23;100921.38;;;11.97;79.20
67109;BME280;54027;50.786;7.058;2022-12-24T11:41:50;100924.09;;;11.86;80.28
67109;BME280;54027;50.786;7.058;2022-12-24T11:44:26;100916.41;;;11.76;80.48
67109;BME280;54027;50.786;7.058;2022-12-24T11:46:52;100922.50;;;11.73;80.68
67109;BME280;54027;50.786;7.058;2022-12-24T11:57:53;100926.25;;;12.20;79.59
67109;BME280;54027;50.786;7.058;2022-12-24T12:00:20;100921.91;;;12.23;78.86
67109;BME280;54027;50.786;7.058;2022-12-24T12:02:47;100928.75;;;12.29;78.76
67109;BME280;54027;50.786;7.058;2022-12-24T12:05:18;100924.41;;;12.31;79.07
67109;BME280;54027;50.786;7.058;2022-12-24T12:07:46;100925.28;;;12.31;79.12
67109;BME280;54027;50.786;7.058;2022-12-24T12:12:56;100928.78;;;12.27;78.91
67109;BME280;54027;50.786;7.058;2022-12-24T12:15:36;100933.06;;;12.30;78.92
67109;BME280;54027;50.786;7.058;2022-12-24T12:18:35;100931.28;;;12.32;79.02
67109;BME280;54027;50.786;7.058;2022-12-24T12:21:10;100935.53;;;12.40;79.06
67109;BME280;54027;50.786;7.058;2022-12-24T12:23:46;100934.50;;;12.51;77.80
67109;BME280;54027;50.786;7.058;2022-12-24T12:26:24;100946.50;;;12.59;78.04
67109;BME280;54027;50.786;7.058;2022-12-24T12:28:57;100943.03;;;12.59;77.71
67109;BME280;54027;50.786;7.058;2022-12-24T12:31:35;100945.66;;;12.57;77.40
67109;BME280;54027;50.786;7.058;2022-12-24T12:34:21;100938.91;;;12.44;78.16
67109;BME280;54027;50.786;7.058;2022-12-24T12:37:42;100938.16;;;12.36;78.31
67109;BME280;54027;50.786;7.058;2022-12-24T12:40:01;100933.09;;;12.28;78.61
67109;BME280;54027;50.786;7.058;2022-12-24T12:42:33;100947.03;;;12.17;79.03
67109;BME280;54027;50.786;7.058;2022-12-24T12:53:52;100945.16;;;12.29;78.26
67109;BME280;54027;50.786;7.058;2022-12-24T13:15:28;100944.00;;;12.50;76.14
67109;BME280;54027;50.786;7.058;2022-12-24T13:18:12;100947.47;;;12.52;76.05
67109;BME280;54027;50.786;7.058;2022-12-24T13:20:48;100953.47;;;12.54;75.95
67109;BME280;54027;50.786;7.058;2022-12-24T13:23:20;100943.06;;;12.56;76.07
67109;BME280;54027;50.786;7.058;2022-12-24T13:25:55;100950.84;;;12.56;76.13
67109;BME280;54027;50.786;7.058;2022-12-24T13:31:21;100948.13;;;12.65;74.72
67109;BME280;54027;50.786;7.058;2022-12-24T13:33:57;100948.03;;;12.72;74.04
67109;BME280;54027;50.786;7.058;2022-12-24T13:36:23;100963.47;;;12.80;74.69
67109;BME280;54027;50.786;7.058;2022-12-24T13:49:43;100958.94;;;12.94;73.08
67109;BME280;54027;50.786;7.058;2022-12-24T13:54:41;100964.94;;;13.00;73.44
67109;BME280;54027;50.786;7.058;2022-12-24T14:00:37;100970.00;;;13.10;73.00
67109;BME280;54027;50.786;7.058;2022-12-24T14:05:45;100981.38;;;12.98;73.31
67109;BME280;54027;50.786;7.058;2022-12-24T14:08:25;100986.56;;;12.98;73.40
67109;BME280;54027;50.786;7.058;2022-12-24T14:11:17;100978.88;;;12.93;73.40
67109;BME280;54027;50.786;7.058;2022-12-24T14:16:17;100990.53;;;12.62;75.13
67109;BME280;54027;50.786;7.058;2022-12-24T14:18:45;100993.34;;;12.44;75.95
67109;BME280;54027;50.786;7.058;2022-12-24T14:21:25;100994.31;;;12.35;75.60
67109;BME280;54027;50.786;7.058;2022-12-24T14:23:55;100999.59;;;12.31;75.91
67109;BME280;54027;50.786;7.058;2022-12-24T14:26:24;100995.34;;;12.25;76.30
67109;BME280;54027;50.786;7.058;2022-12-24T14:28:57;100991.88;;;12.23;75.49
67109;BME280;54027;50.786;7.058;2022-12-24T14:31:24;100999.69;;;12.20;75.19
67109;BME280;54027;50.786;7.058;2022-12-24T14:33:49;101000.69;;;12.10;75.53
67109;BME280;54027;50.786;7.058;2022-12-24T14:36:20;101008.50;;;12.03;75.92
67109;BME280;54027;50.786;7.058;2022-12-24T14:38:46;101008.63;;;11.95;76.39
67109;BME280;54027;50.786;7.058;2022-12-24T14:41:21;101016.47;;;11.86;77.33
67109;BME280;54027;50.786;7.058;2022-12-24T14:44:27;101020.84;;;11.81;77.65
67109;BME280;54027;50.786;7.058;2022-12-24T14:46:59;101020.81;;;11.82;77.32
67109;BME280;54027;50.786;7.058;2022-12-24T14:52:08;101025.97;;;11.87;77.75
67109;BME280;54027;50.786;7.058;2022-12-24T14:54:39;101032.00;;;11.86;77.84
67109;BME280;54027;50.786;7.058;2022-12-24T15:00:00;101030.34;;;11.80;78.03
67109;BME280;54027;50.786;7.058;2022-12-24T15:02:46;101028.66;;;11.73;78.30
67109;BME280;54027;50.786;7.058;2022-12-24T15:10:37;101043.50;;;11.52;80.12
67109;BME280;54027;50.786;7.058;2022-12-24T15:13:11;101058.22;;;11.50;79.93
67109;BME280;54027;50.786;7.058;2022-12-24T15:15:42;101055.63;;;11.47;80.37
67109;BME280;54027;50.786;7.058;2022-12-24T15:18:14;101067.72;;;11.46;80.70
67109;BME280;54027;50.786;7.058;2022-12-24T15:20:42;101066.00;;;11.44;80.86
67109;BME280;54027;50.786;7.058;2022-12-24T15:23:18;101066.03;;;11.38;81.01
67109;BME280;54027;50.786;7.058;2022-12-24T15:25:44;101078.16;;;11.29;81.84
67109;BME280;54027;50.786;7.058;2022-12-24T15:28:17;101079.06;;;11.19;82.51
67109;BME280;54027;50.786;7.058;2022-12-24T15:30:44;101074.84;;;11.05;82.91
67109;BME280;54027;50.786;7.058;2022-12-24T15:33:09;101085.25;;;10.94;84.22
67109;BME280;54027;50.786;7.058;2022-12-24T15:35:51;101090.44;;;10.90;84.54
67109;BME280;54027;50.786;7.058;2022-12-24T15:38:44;101088.75;;;10.89;84.13
67109;BME280;54027;50.786;7.058;2022-12-24T15:41:23;101083.59;;;10.86;84.57
67109;BME280;54027;50.786;7.058;2022-12-24T15:43:50;101082.72;;;10.80;84.69
67109;BME280;54027;50.786;7.058;2022-12-24T15:46:22;101087.06;;;10.75;85.65
67109;BME280;54027;50.786;7.058;2022-12-24T15:48:49;101087.13;;;10.65;85.85
67109;BME280;54027;50.786;7.058;2022-12-24T15:51:26;101093.19;;;10.53;85.85
67109;BME280;54027;50.786;7.058;2022-12-24T15:54:11;101099.25;;;10.40;86.35
67109;BME280;54027;50.786;7.058;2022-12-24T15:56:40;101107.88;;;10.26;86.68
67109;BME280;54027;50.786;7.058;2022-12-24T15:59:25;101097.56;;;10.09;87.49
67109;BME280;54027;50.786;7.058;2022-12-24T16:01:52;101099.28;;;9.95;87.91
67109;BME280;54027;50.786;7.058;2022-12-24T16:04:27;101097.59;;;9.80;88.80
67109;BME280;54027;50.786;7.058;2022-12-24T16:06:58;101097.56;;;9.68;89.14
67109;BME280;54027;50.786;7.058;2022-12-24T16:12:03;101094.94;;;9.38;90.21
67109;BME280;54027;50.786;7.058;2022-12-24T16:14:35;101102.66;;;9.26;90.08
67109;BME280;54027;50.786;7.058;2022-12-24T16:17:16;101099.19;;;9.14;90.13
67109;BME280;54027;50.786;7.058;2022-12-24T16:19:46;101094.00;;;9.04;90.38
67109;BME280;54027;50.786;7.058;2022-12-24T16:22:16;101089.66;;;8.92;91.20
67109;BME280;54027;50.786;7.058;2022-12-24T16:25:22;101088.75;;;8.81;91.60
67109;BME280;54027;50.786;7.058;2022-12-24T16:27:50;101089.56;;;8.70;91.96
67109;BME280;54027;50.786;7.058;2022-12-24T16:30:16;101085.25;;;8.63;92.37
67109;BME280;54027;50.786;7.058;2022-12-24T16:32:42;101086.94;;;8.56;92.69
67109;BME280;54027;50.786;7.058;2022-12-24T16:35:29;101093.78;;;8.52;93.24
67109;BME280;54027;50.786;7.058;2022-12-24T16:38:01;101094.66;;;8.53;93.11
67109;BME280;54027;50.786;7.058;2022-12-24T16:40:27;101091.22;;;8.58;93.57
67109;BME280;54027;50.786;7.058;2022-12-24T16:42:55;101093.00;;;8.67;94.40
67109;BME280;54027;50.786;7.058;2022-12-24T16:45:41;101100.81;;;8.81;93.66
67109;BME280;54027;50.786;7.058;2022-12-24T16:48:07;101099.09;;;8.93;93.42
67109;BME280;54027;50.786;7.058;2022-12-24T16:50:33;101103.44;;;9.03;92.95
67109;BME280;54027;50.786;7.058;2022-12-24T16:52:59;101112.94;;;9.13;92.69